sensor_id;sensor_type;location;lat;lon;timestamp;P1;durP1;ratioP1;P2;durP2;ratioP2
11078;SDS011;5592;49.234;7.268;2022-12-11T00:01:09;48.63;;;20.93;;
11078;SDS011;5592;49.234;7.268;2022-12-11T00:03:39;42.70;;;18.53;;
11078;SDS011;5592;49.234;7.268;2022-12-11T00:06:09;45.63;;;19.53;;
11078;SDS011;5592;49.234;7.268;2022-12-11T00:08:37;53.23;;;20.80;;
11078;SDS011;5592;49.234;7.268;2022-12-11T00:11:04;44.80;;;20.73;;
11078;SDS011;5592;49.234;7.268;2022-12-11T00:13:32;53.23;;;22.00;;
11078;SDS011;5592;49.234;7.268;2022-12-11T00:15:57;55.50;;;22.73;;
11078;SDS011;5592;49.234;7.268;2022-12-11T00:18:23;61.37;;;23.80;;
11078;SDS011;5592;49.234;7.268;2022-12-11T00:20:49;60.73;;;23.10;;
11078;SDS011;5592;49.234;7.268;2022-12-11T00:23:14;54.70;;;22.27;;
11078;SDS011;5592;49.234;7.268;2022-12-11T00:25:40;55.53;;;22.87;;
11078;SDS011;5592;49.234;7.268;2022-12-11T00:28:08;53.67;;;22.30;;
11078;SDS011;5592;49.234;7.268;2022-12-11T00:30:37;53.97;;;23.70;;
11078;SDS011;5592;49.234;7.268;2022-12-11T00:33:03;52.23;;;23.70;;
11078;SDS011;5592;49.234;7.268;2022-12-11T00:35:29;68.03;;;25.00;;
11078;SDS011;5592;49.234;7.268;2022-12-11T00:37:56;62.87;;;23.40;;
11078;SDS011;5592;49.234;7.268;2022-12-11T00:40:22;56.67;;;23.10;;
11078;SDS011;5592;49.234;7.268;2022-12-11T00:42:47;64.37;;;25.63;;
11078;SDS011;5592;49.234;7.268;2022-12-11T00:45:13;68.23;;;25.07;;
11078;SDS011;5592;49.234;7.268;2022-12-11T00:47:39;62.80;;;24.43;;
11078;SDS011;5592;49.234;7.268;2022-12-11T00:50:07;60.37;;;24.17;;
11078;SDS011;5592;49.234;7.268;2022-12-11T00:52:35;72.63;;;26.90;;
11078;SDS011;5592;49.234;7.268;2022-12-11T00:55:01;70.80;;;25.20;;
11078;SDS011;5592;49.234;7.268;2022-12-11T00:57:27;73.50;;;27.17;;
11078;SDS011;5592;49.234;7.268;2022-12-11T00:59:52;62.33;;;25.80;;
11078;SDS011;5592;49.234;7.268;2022-12-11T01:02:18;68.10;;;25.23;;
11078;SDS011;5592;49.234;7.268;2022-12-11T01:04:43;60.93;;;23.77;;
11078;SDS011;5592;49.234;7.268;2022-12-11T01:07:12;68.83;;;25.73;;
11078;SDS011;5592;49.234;7.268;2022-12-11T01:09:37;60.30;;;25.33;;
11078;SDS011;5592;49.234;7.268;2022-12-11T01:12:21;83.77;;;24.00;;
11078;SDS011;5592;49.234;7.268;2022-12-11T01:14:47;79.10;;;26.80;;
11078;SDS011;5592;49.234;7.268;2022-12-11T01:17:12;64.90;;;23.73;;
11078;SDS011;5592;49.234;7.268;2022-12-11T01:19:38;74.23;;;25.10;;
11078;SDS011;5592;49.234;7.268;2022-12-11T01:22:04;78.93;;;26.30;;
11078;SDS011;5592;49.234;7.268;2022-12-11T01:24:29;75.73;;;25.40;;
11078;SDS011;5592;49.234;7.268;2022-12-11T01:26:55;75.00;;;24.97;;
11078;SDS011;5592;49.234;7.268;2022-12-11T01:29:21;74.47;;;25.60;;
11078;SDS011;5592;49.234;7.268;2022-12-11T01:31:47;78.43;;;25.33;;
11078;SDS011;5592;49.234;7.268;2022-12-11T01:34:12;69.80;;;24.63;;
11078;SDS011;5592;49.234;7.268;2022-12-11T01:36:40;79.40;;;25.13;;
11078;SDS011;5592;49.234;7.268;2022-12-11T01:39:08;66.90;;;22.27;;
11078;SDS011;5592;49.234;7.268;2022-12-11T01:41:37;59.30;;;23.90;;
11078;SDS011;5592;49.234;7.268;2022-12-11T01:44:04;87.13;;;25.40;;
11078;SDS011;5592;49.234;7.268;2022-12-11T01:46:31;69.30;;;23.73;;
11078;SDS011;5592;49.234;7.268;2022-12-11T01:49:01;76.63;;;24.13;;
11078;SDS011;5592;49.234;7.268;2022-12-11T01:51:30;68.80;;;23.40;;
11078;SDS011;5592;49.234;7.268;2022-12-11T01:54:00;80.83;;;25.60;;
11078;SDS011;5592;49.234;7.268;2022-12-11T01:56:31;63.50;;;23.53;;
11078;SDS011;5592;49.234;7.268;2022-12-11T01:58:58;65.83;;;23.60;;
11078;SDS011;5592;49.234;7.268;2022-12-11T02:01:33;57.73;;;21.50;;
11078;SDS011;5592;49.234;7.268;2022-12-11T02:04:08;68.77;;;23.70;;
11078;SDS011;5592;49.234;7.268;2022-12-11T02:09:03;66.57;;;24.13;;
11078;SDS011;5592;49.234;7.268;2022-12-11T02:11:40;64.87;;;23.70;;
11078;SDS011;5592;49.234;7.268;2022-12-11T02:14:27;63.17;;;23.40;;
11078;SDS011;5592;49.234;7.268;2022-12-11T02:19:51;57.17;;;21.50;;
11078;SDS011;5592;49.234;7.268;2022-12-11T02:27:40;77.33;;;22.37;;
11078;SDS011;5592;49.234;7.268;2022-12-11T02:30:20;49.83;;;19.80;;
11078;SDS011;5592;49.234;7.268;2022-12-11T02:32:53;64.53;;;20.80;;
11078;SDS011;5592;49.234;7.268;2022-12-11T02:35:30;54.97;;;20.57;;
11078;SDS011;5592;49.234;7.268;2022-12-11T02:38:03;60.30;;;18.87;;
11078;SDS011;5592;49.234;7.268;2022-12-11T02:40:43;57.73;;;20.40;;
11078;SDS011;5592;49.234;7.268;2022-12-11T02:43:12;49.73;;;19.80;;
11078;SDS011;5592;49.234;7.268;2022-12-11T02:45:40;58.00;;;20.47;;
11078;SDS011;5592;49.234;7.268;2022-12-11T02:48:08;55.57;;;21.67;;
11078;SDS011;5592;49.234;7.268;2022-12-11T02:50:36;51.53;;;18.93;;
11078;SDS011;5592;49.234;7.268;2022-12-11T02:53:06;55.93;;;18.90;;
11078;SDS011;5592;49.234;7.268;2022-12-11T02:55:34;44.37;;;17.90;;
11078;SDS011;5592;49.234;7.268;2022-12-11T02:58:06;51.03;;;19.67;;
11078;SDS011;5592;49.234;7.268;2022-12-11T03:00:41;50.07;;;18.83;;
11078;SDS011;5592;49.234;7.268;2022-12-11T03:03:07;54.50;;;18.13;;
11078;SDS011;5592;49.234;7.268;2022-12-11T03:05:33;51.27;;;20.73;;
11078;SDS011;5592;49.234;7.268;2022-12-11T03:08:01;49.13;;;18.27;;
11078;SDS011;5592;49.234;7.268;2022-12-11T03:10:27;51.20;;;18.57;;
11078;SDS011;5592;49.234;7.268;2022-12-11T03:12:53;47.90;;;19.97;;
11078;SDS011;5592;49.234;7.268;2022-12-11T03:15:22;56.33;;;20.97;;
11078;SDS011;5592;49.234;7.268;2022-12-11T03:21:16;67.83;;;20.83;;
11078;SDS011;5592;49.234;7.268;2022-12-11T03:23:57;49.40;;;18.80;;
11078;SDS011;5592;49.234;7.268;2022-12-11T03:26:29;53.30;;;19.57;;
11078;SDS011;5592;49.234;7.268;2022-12-11T03:29:02;46.97;;;18.27;;
11078;SDS011;5592;49.234;7.268;2022-12-11T03:31:38;65.23;;;21.10;;
11078;SDS011;5592;49.234;7.268;2022-12-11T03:34:09;53.07;;;19.93;;
11078;SDS011;5592;49.234;7.268;2022-12-11T03:36:43;55.80;;;19.13;;
11078;SDS011;5592;49.234;7.268;2022-12-11T03:39:12;51.03;;;19.13;;
11078;SDS011;5592;49.234;7.268;2022-12-11T03:41:43;55.20;;;18.30;;
11078;SDS011;5592;49.234;7.268;2022-12-11T03:44:13;59.37;;;20.40;;
11078;SDS011;5592;49.234;7.268;2022-12-11T03:46:39;51.23;;;20.03;;
11078;SDS011;5592;49.234;7.268;2022-12-11T03:49:14;54.47;;;17.80;;
11078;SDS011;5592;49.234;7.268;2022-12-11T03:51:45;45.13;;;18.63;;
11078;SDS011;5592;49.234;7.268;2022-12-11T03:54:14;55.23;;;17.53;;
11078;SDS011;5592;49.234;7.268;2022-12-11T03:56:40;42.13;;;15.93;;
11078;SDS011;5592;49.234;7.268;2022-12-11T03:59:09;40.03;;;15.43;;
11078;SDS011;5592;49.234;7.268;2022-12-11T04:01:34;41.17;;;14.80;;
11078;SDS011;5592;49.234;7.268;2022-12-11T04:04:00;34.77;;;13.90;;
11078;SDS011;5592;49.234;7.268;2022-12-11T04:06:26;36.83;;;13.53;;
11078;SDS011;5592;49.234;7.268;2022-12-11T04:08:51;33.23;;;15.33;;
11078;SDS011;5592;49.234;7.268;2022-12-11T04:11:17;31.47;;;12.27;;
11078;SDS011;5592;49.234;7.268;2022-12-11T04:14:01;30.63;;;13.40;;
11078;SDS011;5592;49.234;7.268;2022-12-11T04:16:53;32.50;;;13.97;;
11078;SDS011;5592;49.234;7.268;2022-12-11T04:19:20;30.20;;;12.97;;
11078;SDS011;5592;49.234;7.268;2022-12-11T04:22:05;30.90;;;13.47;;
11078;SDS011;5592;49.234;7.268;2022-12-11T04:24:50;34.73;;;13.80;;
11078;SDS011;5592;49.234;7.268;2022-12-11T04:27:16;32.27;;;14.17;;
11078;SDS011;5592;49.234;7.268;2022-12-11T04:30:07;34.50;;;13.30;;
11078;SDS011;5592;49.234;7.268;2022-12-11T04:32:35;32.00;;;14.10;;
11078;SDS011;5592;49.234;7.268;2022-12-11T04:35:00;36.37;;;13.50;;
11078;SDS011;5592;49.234;7.268;2022-12-11T04:37:27;33.90;;;12.40;;
11078;SDS011;5592;49.234;7.268;2022-12-11T04:39:53;30.07;;;13.20;;
11078;SDS011;5592;49.234;7.268;2022-12-11T04:42:18;36.60;;;13.47;;
11078;SDS011;5592;49.234;7.268;2022-12-11T04:44:44;30.77;;;13.13;;
11078;SDS011;5592;49.234;7.268;2022-12-11T04:47:09;28.43;;;12.60;;
11078;SDS011;5592;49.234;7.268;2022-12-11T04:49:35;30.60;;;13.10;;
11078;SDS011;5592;49.234;7.268;2022-12-11T04:52:01;33.27;;;13.57;;
11078;SDS011;5592;49.234;7.268;2022-12-11T04:54:30;30.60;;;13.70;;
11078;SDS011;5592;49.234;7.268;2022-12-11T04:56:56;30.07;;;12.63;;
11078;SDS011;5592;49.234;7.268;2022-12-11T04:59:22;29.30;;;13.77;;
11078;SDS011;5592;49.234;7.268;2022-12-11T05:01:47;38.50;;;14.00;;
11078;SDS011;5592;49.234;7.268;2022-12-11T05:04:13;28.97;;;12.93;;
11078;SDS011;5592;49.234;7.268;2022-12-11T05:06:38;32.27;;;14.40;;
11078;SDS011;5592;49.234;7.268;2022-12-11T05:09:11;35.77;;;14.47;;
11078;SDS011;5592;49.234;7.268;2022-12-11T05:11:36;29.47;;;12.80;;
11078;SDS011;5592;49.234;7.268;2022-12-11T05:14:03;36.37;;;15.93;;
11078;SDS011;5592;49.234;7.268;2022-12-11T05:16:28;37.57;;;15.50;;
11078;SDS011;5592;49.234;7.268;2022-12-11T05:18:54;34.80;;;14.73;;
11078;SDS011;5592;49.234;7.268;2022-12-11T05:21:20;32.47;;;12.93;;
11078;SDS011;5592;49.234;7.268;2022-12-11T05:23:52;31.23;;;13.50;;
11078;SDS011;5592;49.234;7.268;2022-12-11T05:26:18;38.37;;;14.77;;
11078;SDS011;5592;49.234;7.268;2022-12-11T05:28:45;43.60;;;14.57;;
11078;SDS011;5592;49.234;7.268;2022-12-11T05:31:15;34.37;;;14.07;;
11078;SDS011;5592;49.234;7.268;2022-12-11T05:33:43;32.30;;;13.97;;
11078;SDS011;5592;49.234;7.268;2022-12-11T05:36:15;38.43;;;13.37;;
11078;SDS011;5592;49.234;7.268;2022-12-11T05:38:49;29.80;;;13.43;;
11078;SDS011;5592;49.234;7.268;2022-12-11T05:41:16;32.70;;;14.70;;
11078;SDS011;5592;49.234;7.268;2022-12-11T05:43:43;38.13;;;14.67;;
11078;SDS011;5592;49.234;7.268;2022-12-11T05:46:13;39.33;;;16.13;;
11078;SDS011;5592;49.234;7.268;2022-12-11T05:48:41;33.07;;;13.07;;
11078;SDS011;5592;49.234;7.268;2022-12-11T05:51:07;31.97;;;14.57;;
11078;SDS011;5592;49.234;7.268;2022-12-11T05:53:34;41.40;;;15.57;;
11078;SDS011;5592;49.234;7.268;2022-12-11T05:56:05;33.60;;;14.23;;
11078;SDS011;5592;49.234;7.268;2022-12-11T05:58:38;36.33;;;14.10;;
11078;SDS011;5592;49.234;7.268;2022-12-11T06:01:08;30.30;;;14.17;;
11078;SDS011;5592;49.234;7.268;2022-12-11T06:03:36;31.63;;;14.90;;
11078;SDS011;5592;49.234;7.268;2022-12-11T06:06:05;37.27;;;15.07;;
11078;SDS011;5592;49.234;7.268;2022-12-11T06:08:31;36.73;;;14.07;;
11078;SDS011;5592;49.234;7.268;2022-12-11T06:10:58;37.07;;;13.80;;
11078;SDS011;5592;49.234;7.268;2022-12-11T06:13:23;39.27;;;15.40;;
11078;SDS011;5592;49.234;7.268;2022-12-11T06:15:49;40.23;;;15.07;;
11078;SDS011;5592;49.234;7.268;2022-12-11T06:18:15;38.53;;;15.13;;
11078;SDS011;5592;49.234;7.268;2022-12-11T06:20:41;40.30;;;15.30;;
11078;SDS011;5592;49.234;7.268;2022-12-11T06:23:06;37.77;;;14.97;;
11078;SDS011;5592;49.234;7.268;2022-12-11T06:25:32;39.07;;;16.07;;
11078;SDS011;5592;49.234;7.268;2022-12-11T06:27:58;30.00;;;13.40;;
11078;SDS011;5592;49.234;7.268;2022-12-11T06:30:23;40.93;;;15.23;;
11078;SDS011;5592;49.234;7.268;2022-12-11T06:32:49;39.30;;;14.17;;
11078;SDS011;5592;49.234;7.268;2022-12-11T06:35:15;38.50;;;14.93;;
11078;SDS011;5592;49.234;7.268;2022-12-11T06:37:40;37.10;;;14.20;;
11078;SDS011;5592;49.234;7.268;2022-12-11T06:40:09;32.00;;;13.43;;
11078;SDS011;5592;49.234;7.268;2022-12-11T06:42:36;35.60;;;13.57;;
11078;SDS011;5592;49.234;7.268;2022-12-11T06:45:03;34.57;;;13.80;;
11078;SDS011;5592;49.234;7.268;2022-12-11T06:47:29;38.10;;;13.97;;
11078;SDS011;5592;49.234;7.268;2022-12-11T06:49:56;34.63;;;14.87;;
11078;SDS011;5592;49.234;7.268;2022-12-11T06:52:22;37.93;;;14.20;;
11078;SDS011;5592;49.234;7.268;2022-12-11T06:54:49;38.57;;;15.60;;
11078;SDS011;5592;49.234;7.268;2022-12-11T06:57:15;44.03;;;16.23;;
11078;SDS011;5592;49.234;7.268;2022-12-11T06:59:41;30.53;;;12.63;;
11078;SDS011;5592;49.234;7.268;2022-12-11T07:02:10;41.23;;;15.37;;
11078;SDS011;5592;49.234;7.268;2022-12-11T07:04:40;38.87;;;15.00;;
11078;SDS011;5592;49.234;7.268;2022-12-11T07:07:06;35.70;;;14.10;;
11078;SDS011;5592;49.234;7.268;2022-12-11T07:09:32;35.47;;;13.70;;
11078;SDS011;5592;49.234;7.268;2022-12-11T07:12:01;37.37;;;14.20;;
11078;SDS011;5592;49.234;7.268;2022-12-11T07:14:28;39.97;;;14.80;;
11078;SDS011;5592;49.234;7.268;2022-12-11T07:16:54;37.00;;;12.90;;
11078;SDS011;5592;49.234;7.268;2022-12-11T07:19:20;34.30;;;13.63;;
11078;SDS011;5592;49.234;7.268;2022-12-11T07:21:46;36.93;;;15.77;;
11078;SDS011;5592;49.234;7.268;2022-12-11T07:24:12;42.80;;;15.40;;
11078;SDS011;5592;49.234;7.268;2022-12-11T07:26:37;33.23;;;13.73;;
11078;SDS011;5592;49.234;7.268;2022-12-11T07:29:03;33.07;;;12.93;;
11078;SDS011;5592;49.234;7.268;2022-12-11T07:31:31;32.93;;;14.20;;
11078;SDS011;5592;49.234;7.268;2022-12-11T07:33:58;38.13;;;14.80;;
11078;SDS011;5592;49.234;7.268;2022-12-11T07:36:25;40.43;;;16.10;;
11078;SDS011;5592;49.234;7.268;2022-12-11T07:38:52;37.43;;;14.07;;
11078;SDS011;5592;49.234;7.268;2022-12-11T07:41:18;41.50;;;13.80;;
11078;SDS011;5592;49.234;7.268;2022-12-11T07:43:43;42.17;;;15.30;;
11078;SDS011;5592;49.234;7.268;2022-12-11T07:46:16;39.30;;;14.87;;
11078;SDS011;5592;49.234;7.268;2022-12-11T07:48:44;42.10;;;14.57;;
11078;SDS011;5592;49.234;7.268;2022-12-11T07:53:50;37.77;;;15.07;;
11078;SDS011;5592;49.234;7.268;2022-12-11T07:56:19;40.50;;;14.77;;
11078;SDS011;5592;49.234;7.268;2022-12-11T07:58:45;33.83;;;14.90;;
11078;SDS011;5592;49.234;7.268;2022-12-11T08:01:12;30.13;;;13.90;;
11078;SDS011;5592;49.234;7.268;2022-12-11T08:03:48;35.53;;;14.60;;
11078;SDS011;5592;49.234;7.268;2022-12-11T08:06:15;38.67;;;15.40;;
11078;SDS011;5592;49.234;7.268;2022-12-11T08:08:41;38.90;;;14.20;;
11078;SDS011;5592;49.234;7.268;2022-12-11T08:11:08;33.43;;;13.63;;
11078;SDS011;5592;49.234;7.268;2022-12-11T08:13:36;38.23;;;13.47;;
11078;SDS011;5592;49.234;7.268;2022-12-11T08:16:07;37.97;;;14.60;;
11078;SDS011;5592;49.234;7.268;2022-12-11T08:18:35;33.37;;;13.57;;
11078;SDS011;5592;49.234;7.268;2022-12-11T08:21:08;32.77;;;14.20;;
11078;SDS011;5592;49.234;7.268;2022-12-11T08:23:39;38.90;;;13.90;;
11078;SDS011;5592;49.234;7.268;2022-12-11T08:26:05;36.53;;;13.90;;
11078;SDS011;5592;49.234;7.268;2022-12-11T08:28:33;38.93;;;14.43;;
11078;SDS011;5592;49.234;7.268;2022-12-11T08:30:59;35.67;;;15.40;;
11078;SDS011;5592;49.234;7.268;2022-12-11T08:33:30;33.20;;;13.07;;
11078;SDS011;5592;49.234;7.268;2022-12-11T08:35:56;32.70;;;14.20;;
11078;SDS011;5592;49.234;7.268;2022-12-11T08:38:22;38.17;;;15.03;;
11078;SDS011;5592;49.234;7.268;2022-12-11T08:40:48;37.10;;;14.23;;
11078;SDS011;5592;49.234;7.268;2022-12-11T08:43:16;37.97;;;14.57;;
11078;SDS011;5592;49.234;7.268;2022-12-11T08:45:42;31.73;;;12.90;;
11078;SDS011;5592;49.234;7.268;2022-12-11T08:48:07;30.20;;;13.50;;
11078;SDS011;5592;49.234;7.268;2022-12-11T08:50:33;36.23;;;13.37;;
11078;SDS011;5592;49.234;7.268;2022-12-11T08:52:58;36.47;;;13.53;;
11078;SDS011;5592;49.234;7.268;2022-12-11T08:55:24;33.57;;;14.07;;
11078;SDS011;5592;49.234;7.268;2022-12-11T08:57:50;25.13;;;13.10;;
11078;SDS011;5592;49.234;7.268;2022-12-11T09:00:15;33.10;;;13.20;;
11078;SDS011;5592;49.234;7.268;2022-12-11T09:02:42;28.07;;;11.60;;
11078;SDS011;5592;49.234;7.268;2022-12-11T09:05:08;30.40;;;13.20;;
11078;SDS011;5592;49.234;7.268;2022-12-11T09:07:34;34.27;;;12.40;;
11078;SDS011;5592;49.234;7.268;2022-12-11T09:10:00;31.17;;;12.80;;
11078;SDS011;5592;49.234;7.268;2022-12-11T09:12:29;31.47;;;13.43;;
11078;SDS011;5592;49.234;7.268;2022-12-11T09:14:55;31.63;;;12.87;;
11078;SDS011;5592;49.234;7.268;2022-12-11T09:17:21;27.53;;;12.47;;
11078;SDS011;5592;49.234;7.268;2022-12-11T09:19:46;27.97;;;13.03;;
11078;SDS011;5592;49.234;7.268;2022-12-11T09:22:12;26.53;;;12.20;;
11078;SDS011;5592;49.234;7.268;2022-12-11T09:24:38;28.20;;;12.97;;
11078;SDS011;5592;49.234;7.268;2022-12-11T09:27:04;28.33;;;13.07;;
11078;SDS011;5592;49.234;7.268;2022-12-11T09:29:30;33.03;;;12.67;;
11078;SDS011;5592;49.234;7.268;2022-12-11T09:31:56;28.67;;;14.00;;
11078;SDS011;5592;49.234;7.268;2022-12-11T09:34:22;27.67;;;12.47;;
11078;SDS011;5592;49.234;7.268;2022-12-11T09:36:48;32.50;;;13.30;;
11078;SDS011;5592;49.234;7.268;2022-12-11T09:39:14;27.90;;;11.97;;
11078;SDS011;5592;49.234;7.268;2022-12-11T09:41:45;28.03;;;12.97;;
11078;SDS011;5592;49.234;7.268;2022-12-11T09:44:38;25.37;;;12.03;;
11078;SDS011;5592;49.234;7.268;2022-12-11T09:50:02;31.43;;;13.70;;
11078;SDS011;5592;49.234;7.268;2022-12-11T09:52:50;29.13;;;14.47;;
11078;SDS011;5592;49.234;7.268;2022-12-11T09:55:19;36.37;;;14.63;;
11078;SDS011;5592;49.234;7.268;2022-12-11T10:00:36;27.70;;;13.07;;
11078;SDS011;5592;49.234;7.268;2022-12-11T10:03:16;29.90;;;14.50;;
11078;SDS011;5592;49.234;7.268;2022-12-11T10:11:05;32.70;;;13.67;;
11078;SDS011;5592;49.234;7.268;2022-12-11T10:16:49;17.00;;;9.27;;
11078;SDS011;5592;49.234;7.268;2022-12-11T10:19:19;23.47;;;11.10;;
11078;SDS011;5592;49.234;7.268;2022-12-11T10:21:48;23.23;;;10.63;;
11078;SDS011;5592;49.234;7.268;2022-12-11T10:24:38;26.37;;;12.60;;
11078;SDS011;5592;49.234;7.268;2022-12-11T10:27:13;33.77;;;13.70;;
11078;SDS011;5592;49.234;7.268;2022-12-11T10:29:45;31.77;;;12.17;;
11078;SDS011;5592;49.234;7.268;2022-12-11T10:32:14;30.07;;;12.00;;
11078;SDS011;5592;49.234;7.268;2022-12-11T10:34:49;28.13;;;12.80;;
11078;SDS011;5592;49.234;7.268;2022-12-11T10:37:23;27.37;;;12.33;;
11078;SDS011;5592;49.234;7.268;2022-12-11T10:39:48;30.07;;;11.83;;
11078;SDS011;5592;49.234;7.268;2022-12-11T10:42:15;26.10;;;10.53;;
11078;SDS011;5592;49.234;7.268;2022-12-11T10:44:57;30.00;;;13.07;;
11078;SDS011;5592;49.234;7.268;2022-12-11T10:47:30;29.60;;;12.70;;
11078;SDS011;5592;49.234;7.268;2022-12-11T10:50:01;32.13;;;13.20;;
11078;SDS011;5592;49.234;7.268;2022-12-11T10:52:34;31.33;;;12.97;;
11078;SDS011;5592;49.234;7.268;2022-12-11T10:55:05;39.07;;;13.10;;
11078;SDS011;5592;49.234;7.268;2022-12-11T10:57:41;37.47;;;15.17;;
11078;SDS011;5592;49.234;7.268;2022-12-11T11:00:24;29.33;;;12.63;;
11078;SDS011;5592;49.234;7.268;2022-12-11T11:03:01;35.60;;;13.73;;
11078;SDS011;5592;49.234;7.268;2022-12-11T11:05:33;35.07;;;13.90;;
11078;SDS011;5592;49.234;7.268;2022-12-11T11:08:05;42.33;;;15.60;;
11078;SDS011;5592;49.234;7.268;2022-12-11T11:10:35;32.90;;;15.40;;
11078;SDS011;5592;49.234;7.268;2022-12-11T11:13:01;29.63;;;13.47;;
11078;SDS011;5592;49.234;7.268;2022-12-11T11:15:29;43.60;;;17.23;;
11078;SDS011;5592;49.234;7.268;2022-12-11T11:18:08;38.83;;;15.27;;
11078;SDS011;5592;49.234;7.268;2022-12-11T11:20:41;38.37;;;16.70;;
11078;SDS011;5592;49.234;7.268;2022-12-11T11:23:11;40.73;;;17.00;;
11078;SDS011;5592;49.234;7.268;2022-12-11T11:25:46;38.93;;;16.57;;
11078;SDS011;5592;49.234;7.268;2022-12-11T11:28:20;36.07;;;14.60;;
11078;SDS011;5592;49.234;7.268;2022-12-11T11:31:09;40.13;;;15.50;;
11078;SDS011;5592;49.234;7.268;2022-12-11T11:33:44;39.20;;;16.40;;
11078;SDS011;5592;49.234;7.268;2022-12-11T11:36:30;35.13;;;15.93;;
11078;SDS011;5592;49.234;7.268;2022-12-11T11:42:00;35.00;;;14.70;;
11078;SDS011;5592;49.234;7.268;2022-12-11T11:44:31;34.43;;;15.57;;
11078;SDS011;5592;49.234;7.268;2022-12-11T11:47:15;28.53;;;12.60;;
11078;SDS011;5592;49.234;7.268;2022-12-11T11:49:51;26.30;;;12.83;;
11078;SDS011;5592;49.234;7.268;2022-12-11T11:52:31;33.00;;;13.53;;
11078;SDS011;5592;49.234;7.268;2022-12-11T11:58:21;30.10;;;12.93;;
11078;SDS011;5592;49.234;7.268;2022-12-11T12:01:04;30.53;;;13.77;;
11078;SDS011;5592;49.234;7.268;2022-12-11T12:03:34;26.57;;;12.90;;
11078;SDS011;5592;49.234;7.268;2022-12-11T12:13:56;29.37;;;12.57;;
11078;SDS011;5592;49.234;7.268;2022-12-11T12:16:54;23.60;;;10.33;;
11078;SDS011;5592;49.234;7.268;2022-12-11T12:19:50;28.30;;;12.77;;
11078;SDS011;5592;49.234;7.268;2022-12-11T12:25:24;24.73;;;10.67;;
11078;SDS011;5592;49.234;7.268;2022-12-11T12:28:14;27.63;;;12.30;;
11078;SDS011;5592;49.234;7.268;2022-12-11T12:33:47;23.73;;;12.30;;
11078;SDS011;5592;49.234;7.268;2022-12-11T12:36:22;29.03;;;12.37;;
11078;SDS011;5592;49.234;7.268;2022-12-11T12:39:18;22.80;;;12.20;;
11078;SDS011;5592;49.234;7.268;2022-12-11T12:44:37;23.47;;;11.60;;
11078;SDS011;5592;49.234;7.268;2022-12-11T12:47:12;26.90;;;13.00;;
11078;SDS011;5592;49.234;7.268;2022-12-11T12:49:50;27.37;;;12.20;;
11078;SDS011;5592;49.234;7.268;2022-12-11T12:52:20;25.23;;;11.83;;
11078;SDS011;5592;49.234;7.268;2022-12-11T12:54:55;21.60;;;12.17;;
11078;SDS011;5592;49.234;7.268;2022-12-11T12:58:05;20.30;;;11.60;;
11078;SDS011;5592;49.234;7.268;2022-12-11T13:03:12;32.80;;;12.67;;
11078;SDS011;5592;49.234;7.268;2022-12-11T13:05:42;23.10;;;11.07;;
11078;SDS011;5592;49.234;7.268;2022-12-11T13:08:22;24.90;;;12.33;;
11078;SDS011;5592;49.234;7.268;2022-12-11T13:11:00;24.17;;;11.07;;
11078;SDS011;5592;49.234;7.268;2022-12-11T13:16:35;26.27;;;13.80;;
11078;SDS011;5592;49.234;7.268;2022-12-11T13:24:46;24.93;;;12.10;;
11078;SDS011;5592;49.234;7.268;2022-12-11T13:32:30;25.87;;;12.60;;
11078;SDS011;5592;49.234;7.268;2022-12-11T13:34:57;23.17;;;11.03;;
11078;SDS011;5592;49.234;7.268;2022-12-11T13:37:37;21.30;;;10.10;;
11078;SDS011;5592;49.234;7.268;2022-12-11T13:40:19;29.87;;;12.43;;
11078;SDS011;5592;49.234;7.268;2022-12-11T13:42:52;19.00;;;10.00;;
11078;SDS011;5592;49.234;7.268;2022-12-11T13:51:01;27.53;;;12.80;;
11078;SDS011;5592;49.234;7.268;2022-12-11T13:53:27;23.63;;;11.10;;
11078;SDS011;5592;49.234;7.268;2022-12-11T13:56:00;26.33;;;12.57;;
11078;SDS011;5592;49.234;7.268;2022-12-11T13:58:29;23.50;;;11.60;;
11078;SDS011;5592;49.234;7.268;2022-12-11T14:03:54;30.30;;;12.70;;
11078;SDS011;5592;49.234;7.268;2022-12-11T14:06:26;33.13;;;12.90;;
11078;SDS011;5592;49.234;7.268;2022-12-11T14:08:54;37.10;;;13.70;;
11078;SDS011;5592;49.234;7.268;2022-12-11T14:11:24;31.50;;;12.23;;
11078;SDS011;5592;49.234;7.268;2022-12-11T14:13:56;37.37;;;14.73;;
11078;SDS011;5592;49.234;7.268;2022-12-11T14:16:24;43.70;;;15.40;;
11078;SDS011;5592;49.234;7.268;2022-12-11T14:18:51;37.50;;;13.90;;
11078;SDS011;5592;49.234;7.268;2022-12-11T14:21:19;39.50;;;16.10;;
11078;SDS011;5592;49.234;7.268;2022-12-11T14:23:53;43.37;;;14.87;;
11078;SDS011;5592;49.234;7.268;2022-12-11T14:26:24;44.20;;;14.70;;
11078;SDS011;5592;49.234;7.268;2022-12-11T14:28:54;35.00;;;13.07;;
11078;SDS011;5592;49.234;7.268;2022-12-11T14:31:30;47.87;;;15.80;;
11078;SDS011;5592;49.234;7.268;2022-12-11T14:34:06;39.87;;;14.80;;
11078;SDS011;5592;49.234;7.268;2022-12-11T14:36:35;46.00;;;15.97;;
11078;SDS011;5592;49.234;7.268;2022-12-11T14:42:23;44.00;;;15.70;;
11078;SDS011;5592;49.234;7.268;2022-12-11T14:47:57;41.33;;;15.40;;
11078;SDS011;5592;49.234;7.268;2022-12-11T14:53:22;47.17;;;16.10;;
11078;SDS011;5592;49.234;7.268;2022-12-11T14:56:02;44.70;;;16.40;;
11078;SDS011;5592;49.234;7.268;2022-12-11T14:58:31;36.83;;;14.10;;
11078;SDS011;5592;49.234;7.268;2022-12-11T15:01:06;48.63;;;16.40;;
11078;SDS011;5592;49.234;7.268;2022-12-11T15:04:03;43.27;;;17.07;;
11078;SDS011;5592;49.234;7.268;2022-12-11T15:06:31;49.67;;;16.80;;
11078;SDS011;5592;49.234;7.268;2022-12-11T15:09:23;44.30;;;15.67;;
11078;SDS011;5592;49.234;7.268;2022-12-11T15:12:06;36.47;;;17.00;;
11078;SDS011;5592;49.234;7.268;2022-12-11T15:14:41;37.40;;;14.87;;
11078;SDS011;5592;49.234;7.268;2022-12-11T15:17:14;45.93;;;15.53;;
11078;SDS011;5592;49.234;7.268;2022-12-11T15:19:40;42.10;;;14.87;;
11078;SDS011;5592;49.234;7.268;2022-12-11T15:22:15;44.57;;;15.63;;
11078;SDS011;5592;49.234;7.268;2022-12-11T15:24:42;45.90;;;16.37;;
11078;SDS011;5592;49.234;7.268;2022-12-11T15:29:48;45.97;;;16.60;;
11078;SDS011;5592;49.234;7.268;2022-12-11T15:32:17;38.20;;;14.60;;
11078;SDS011;5592;49.234;7.268;2022-12-11T15:34:56;44.10;;;16.47;;
11078;SDS011;5592;49.234;7.268;2022-12-11T15:37:25;37.23;;;15.30;;
11078;SDS011;5592;49.234;7.268;2022-12-11T15:39:53;51.63;;;15.23;;
11078;SDS011;5592;49.234;7.268;2022-12-11T15:42:23;49.50;;;16.50;;
11078;SDS011;5592;49.234;7.268;2022-12-11T15:44:51;46.30;;;16.90;;
11078;SDS011;5592;49.234;7.268;2022-12-11T15:47:20;46.10;;;15.97;;
11078;SDS011;5592;49.234;7.268;2022-12-11T15:49:52;47.13;;;15.67;;
11078;SDS011;5592;49.234;7.268;2022-12-11T15:52:26;42.63;;;15.53;;
11078;SDS011;5592;49.234;7.268;2022-12-11T15:54:51;47.53;;;16.83;;
11078;SDS011;5592;49.234;7.268;2022-12-11T15:57:18;42.90;;;14.97;;
11078;SDS011;5592;49.234;7.268;2022-12-11T15:59:46;52.17;;;14.70;;
11078;SDS011;5592;49.234;7.268;2022-12-11T16:02:13;50.30;;;17.10;;
11078;SDS011;5592;49.234;7.268;2022-12-11T16:04:39;39.27;;;15.53;;
11078;SDS011;5592;49.234;7.268;2022-12-11T16:07:15;44.00;;;14.13;;
11078;SDS011;5592;49.234;7.268;2022-12-11T16:09:51;41.53;;;14.87;;
11078;SDS011;5592;49.234;7.268;2022-12-11T16:12:17;41.20;;;14.30;;
11078;SDS011;5592;49.234;7.268;2022-12-11T16:14:43;41.53;;;13.60;;
11078;SDS011;5592;49.234;7.268;2022-12-11T16:17:13;39.33;;;14.07;;
11078;SDS011;5592;49.234;7.268;2022-12-11T16:19:40;43.83;;;14.10;;
11078;SDS011;5592;49.234;7.268;2022-12-11T16:22:07;34.90;;;13.73;;